Time;durP1;ratioP1;P1;durP2;ratioP2;P2;SDS_P1;SDS_P2;PMS_P1;PMS_P2;Temp;Humidity;BMP_temperature;BMP_pressure;BME280_temperature;BME280_humidity;BME280_pressure;Samples;Min_cycle;Max_cycle;Signal;HPM_P1;HPM_P2
2023/02/20 00:02:14;;;;;;;8.68;4.10;;;8.60;1.70;;;;;;7386538;19;20022;-68
2023/02/20 00:04:44;;;;;;;9.00;3.75;;;8.50;1.50;;;;;;7366832;19;20038;-70
2023/02/20 00:07:14;;;;;;;9.52;4.10;;;8.50;2.00;;;;;;7366547;19;20010;-69
2023/02/20 00:09:44;;;;;;;9.63;3.63;;;8.50;2.10;;;;;;7365167;19;20015;-69
2023/02/20 00:12:14;;;;;;;8.95;4.03;;;8.40;2.40;;;;;;7366722;19;20506;-68
2023/02/20 00:14:43;;;;;;;8.85;4.18;;;8.40;2.60;;;;;;7366458;19;20014;-68
2023/02/20 00:17:16;;;;;;;7.28;3.85;;;8.30;2.80;;;;;;7387906;19;20483;-68
2023/02/20 00:19:46;;;;;;;7.93;3.88;;;8.30;3.00;;;;;;7367563;19;20063;-69
2023/02/20 00:22:16;;;;;;;7.18;3.70;;;8.20;3.60;;;;;;7392530;19;20022;-69
2023/02/20 00:24:46;;;;;;;8.85;4.25;;;8.20;3.60;;;;;;7394331;19;20028;-69
2023/02/20 00:27:16;;;;;;;7.78;3.67;;;8.10;4.40;;;;;;7393639;19;20019;-68
2023/02/20 00:29:47;;;;;;;7.93;3.70;;;8.10;4.30;;;;;;7394758;19;20017;-69
2023/02/20 00:32:19;;;;;;;9.65;3.88;;;8.10;4.50;;;;;;7393612;19;20014;-69
2023/02/20 00:34:49;;;;;;;8.95;3.58;;;8.10;4.40;;;;;;7391943;19;20553;-69
2023/02/20 00:37:19;;;;;;;9.38;4.05;;;8.00;4.50;;;;;;7392017;19;20015;-68
2023/02/20 00:39:48;;;;;;;8.55;3.90;;;8.00;5.00;;;;;;7391587;19;20018;-69
2023/02/20 00:42:18;;;;;;;9.30;3.70;;;8.10;4.70;;;;;;7392202;19;20018;-69
2023/02/20 00:44:48;;;;;;;11.68;4.05;;;8.10;4.40;;;;;;7392193;19;20011;-70
2023/02/20 00:47:20;;;;;;;6.57;3.72;;;8.10;4.30;;;;;;7392960;19;20022;-70
2023/02/20 00:49:50;;;;;;;12.80;4.10;;;8.10;4.00;;;;;;7391131;19;20027;-70
2023/02/20 00:52:20;;;;;;;10.63;4.13;;;8.10;4.10;;;;;;7392515;19;20019;-69
2023/02/20 00:54:50;;;;;;;9.60;3.72;;;8.10;3.70;;;;;;7393335;19;20011;-70
2023/02/20 00:57:20;;;;;;;10.23;4.13;;;8.00;3.80;;;;;;7392484;19;20014;-70
2023/02/20 00:59:50;;;;;;;9.40;4.22;;;8.00;3.60;;;;;;7390773;19;20018;-69
2023/02/20 01:02:22;;;;;;;11.15;4.10;;;8.00;4.00;;;;;;7391406;19;20030;-70
2023/02/20 01:04:52;;;;;;;11.93;3.75;;;7.90;4.20;;;;;;7392364;19;20011;-68
2023/02/20 01:07:22;;;;;;;12.30;4.10;;;7.80;4.90;;;;;;7390873;19;20039;-69
2023/02/20 01:09:52;;;;;;;8.65;3.90;;;7.80;5.20;;;;;;7390632;19;20015;-69
2023/02/20 01:12:22;;;;;;;9.70;4.05;;;7.80;5.50;;;;;;7392196;19;20043;-69
2023/02/20 01:14:51;;;;;;;8.10;4.10;;;7.70;5.70;;;;;;7353417;19;20504;-69
2023/02/20 01:17:24;;;;;;;10.45;5.00;;;7.60;6.20;;;;;;7389016;19;20017;-69
2023/02/20 01:19:54;;;;;;;7.65;4.25;;;7.50;6.90;;;;;;7386287;19;20018;-69
2023/02/20 01:22:24;;;;;;;7.60;4.10;;;7.50;6.90;;;;;;7359534;19;20010;-69
2023/02/20 01:24:54;;;;;;;13.40;4.60;;;7.40;7.80;;;;;;7387526;19;20031;-70
2023/02/20 01:27:24;;;;;;;6.93;4.18;;;7.40;7.90;;;;;;7363613;19;20014;-69
2023/02/20 01:29:54;;;;;;;11.70;4.20;;;7.30;8.20;;;;;;7364389;19;20029;-69
2023/02/20 01:32:26;;;;;;;10.95;5.13;;;7.20;9.10;;;;;;7364208;19;20023;-70
2023/02/20 01:34:56;;;;;;;8.82;4.07;;;7.20;9.40;;;;;;7385811;19;20015;-69
2023/02/20 01:37:26;;;;;;;8.80;4.05;;;7.20;9.00;;;;;;7363428;19;20507;-68
2023/02/20 01:39:55;;;;;;;8.00;3.90;;;7.20;8.80;;;;;;7361822;19;20086;-68
2023/02/20 01:42:27;;;;;;;6.90;3.78;;;7.20;8.30;;;;;;7363007;19;20039;-69
2023/02/20 01:44:57;;;;;;;9.60;4.10;;;7.10;8.00;;;;;;7363347;19;20014;-68
2023/02/20 01:47:29;;;;;;;8.18;4.05;;;7.10;8.20;;;;;;7363847;19;20046;-68
2023/02/20 01:50:05;;;;;;;8.60;4.00;;;7.00;8.70;;;;;;7383266;19;20035;-69
2023/02/20 01:52:38;;;;;;;8.68;4.03;;;7.00;8.60;;;;;;7363482;19;20443;-69
2023/02/20 01:55:10;;;;;;;10.10;4.28;;;6.90;8.50;;;;;;7363314;19;20014;-69
2023/02/20 01:57:44;;;;;;;8.30;3.78;;;6.90;8.60;;;;;;7361565;19;20011;-69
2023/02/20 02:00:18;;;;;;;8.77;4.20;;;6.90;8.60;;;;;;7362795;19;20027;-69
2023/02/20 02:02:54;;;;;;;;;;;6.90;8.40;;;;;;7363932;19;20253;-69
2023/02/20 02:05:25;;;;;;;6.68;4.30;;;6.90;8.80;;;;;;7363117;19;19924;-70
2023/02/20 02:07:55;;;;;;;8.70;4.00;;;6.90;8.60;;;;;;7385017;19;20021;-69
2023/02/20 02:10:28;;;;;;;10.40;4.40;;;6.90;8.20;;;;;;7360608;19;20015;-69
2023/02/20 02:12:58;;;;;;;7.50;4.63;;;6.90;8.40;;;;;;7365447;19;20014;-68
2023/02/20 02:15:28;;;;;;;8.10;4.13;;;6.80;8.50;;;;;;7364964;19;20014;-69
2023/02/20 02:18:16;;;;;;;9.35;4.50;;;6.80;8.50;;;;;;7393343;19;20497;-69
2023/02/20 02:21:19;;;;;;;7.85;4.05;;;6.70;9.00;;;;;;7388404;19;20018;-68
2023/02/20 02:24:21;;;;;;;7.35;4.15;;;6.70;9.50;;;;;;7389143;19;20011;-69
2023/02/20 02:27:19;;;;;;;7.88;4.78;;;6.70;9.40;;;;;;7388112;19;20408;-69
2023/02/20 02:30:19;;;;;;;10.68;4.50;;;6.60;10.50;;;;;;7391117;19;20019;-69
2023/02/20 02:33:25;;;;;;;8.30;4.32;;;6.60;10.70;;;;;;7387832;19;20035;-68
2023/02/20 02:36:18;;;;;;;9.52;4.63;;;6.60;10.80;;;;;;7389338;19;20010;-70
2023/02/20 02:38:54;;;;;;;10.10;5.20;;;6.50;11.00;;;;;;7351531;19;20126;-67
2023/02/20 02:41:30;;;;;;;10.02;4.97;;;6.50;11.30;;;;;;7384364;19;20050;-69
2023/02/20 02:44:04;;;;;;;12.25;5.32;;;6.50;11.70;;;;;;7360313;19;20006;-69
2023/02/20 02:46:43;;;;;;;13.32;5.10;;;6.50;11.90;;;;;;7361873;19;20010;-69
2023/02/20 02:49:21;;;;;;;11.43;4.90;;;6.50;12.10;;;;;;7361017;19;20022;-68
2023/02/20 02:51:55;;;;;;;9.88;5.50;;;6.50;12.10;;;;;;7361687;19;20022;-69
2023/02/20 02:54:27;;;;;;;;;;;6.50;12.60;;;;;;7383698;19;20019;-70
2023/02/20 02:57:20;;;;;;;12.77;5.10;;;6.50;12.60;;;;;;7360639;19;19918;-69
2023/02/20 02:59:54;;;;;;;10.95;5.03;;;6.50;12.90;;;;;;7359338;19;20017;-68
2023/02/20 03:02:26;;;;;;;10.85;5.18;;;6.50;12.80;;;;;;7361279;19;20026;-69
2023/02/20 03:04:57;;;;;;;12.80;5.05;;;6.50;12.30;;;;;;7360264;19;20394;-69
2023/02/20 03:07:32;;;;;;;9.50;5.03;;;6.50;12.80;;;;;;7360820;19;20019;-69
2023/02/20 03:10:06;;;;;;;10.68;5.28;;;6.60;12.50;;;;;;7359636;19;20024;-69
2023/02/20 03:12:39;;;;;;;14.75;5.82;;;6.50;12.80;;;;;;7384969;19;20526;-69
2023/02/20 03:18:04;;;;;;;8.95;4.93;;;6.60;11.90;;;;;;7360576;19;20102;-70
2023/02/20 03:20:34;;;;;;;9.68;5.20;;;6.60;11.30;;;;;;7360036;19;20015;-70
2023/02/20 03:23:09;;;;;;;7.43;4.65;;;6.50;11.70;;;;;;7360167;19;20020;-70
2023/02/20 03:25:43;;;;;;;10.95;5.07;;;6.50;12.10;;;;;;7360763;19;20094;-69
2023/02/20 03:28:15;;;;;;;;;;;6.50;12.20;;;;;;7361392;19;20924;-67
2023/02/20 03:30:52;;;;;;;8.82;4.50;;;6.40;11.90;;;;;;7358096;19;19919;-68
2023/02/20 03:44:33;;;;;;;14.98;5.82;;;6.60;10.90;;;;;;7386530;19;20015;-69
2023/02/20 03:47:05;;;;;;;11.82;4.50;;;6.60;10.60;;;;;;7388007;19;20018;-69
2023/02/20 03:49:38;;;;;;;11.57;4.65;;;6.70;10.40;;;;;;7385847;19;20019;-69
2023/02/20 03:52:09;;;;;;;6.32;4.32;;;6.80;10.10;;;;;;7387701;19;20007;-69
2023/02/20 03:54:42;;;;;;;9.00;4.68;;;6.80;9.20;;;;;;7387361;19;20011;-69
2023/02/20 03:57:14;;;;;;;7.97;4.82;;;6.90;8.30;;;;;;7387481;19;20014;-69
2023/02/20 03:59:49;;;;;;;9.63;4.40;;;6.90;8.30;;;;;;7385360;19;20383;-69
2023/02/20 04:02:23;;;;;;;7.70;3.78;;;7.00;7.90;;;;;;7387247;19;20010;-69
2023/02/20 04:04:56;;;;;;;10.27;4.03;;;7.10;6.80;;;;;;7385812;19;20010;-69
2023/02/20 04:07:29;;;;;;;8.57;3.92;;;7.10;6.70;;;;;;7387383;19;20064;-68
2023/02/20 04:10:05;;;;;;;6.45;3.88;;;7.20;5.90;;;;;;7385923;19;20014;-69
2023/02/20 04:12:40;;;;;;;7.72;3.75;;;7.20;6.10;;;;;;7388062;19;20011;-69
2023/02/20 04:15:11;;;;;;;10.98;4.05;;;7.20;6.00;;;;;;7387532;19;20020;-68
2023/02/20 04:17:45;;;;;;;6.30;3.42;;;7.30;5.20;;;;;;7387902;19;20018;-69
2023/02/20 04:20:16;;;;;;;10.77;3.15;;;7.20;5.70;;;;;;7387770;19;20015;-69
2023/02/20 04:22:49;;;;;;;6.82;3.30;;;7.10;6.00;;;;;;7393826;19;20044;-69
2023/02/20 04:25:33;;;;;;;6.88;3.50;;;7.00;6.60;;;;;;7391678;19;20077;-68
2023/02/20 04:28:04;;;;;;;12.05;3.72;;;6.80;7.90;;;;;;7393473;19;20383;-69
2023/02/20 04:30:34;;;;;;;6.97;3.63;;;6.80;8.30;;;;;;7395815;19;20347;-69
2023/02/20 04:33:04;;;;;;;7.90;3.80;;;6.60;9.00;;;;;;7393085;19;20011;-68
2023/02/20 04:35:34;;;;;;;7.78;4.13;;;6.50;10.20;;;;;;7394206;19;20021;-69
2023/02/20 04:38:04;;;;;;;8.77;3.78;;;6.40;10.60;;;;;;7393602;19;20078;-69
2023/02/20 04:40:36;;;;;;;6.07;4.03;;;6.40;11.40;;;;;;7390972;19;20014;-69
2023/02/20 04:43:06;;;;;;;5.35;3.53;;;6.30;12.00;;;;;;7392240;19;20087;-68
2023/02/20 04:45:36;;;;;;;11.30;4.47;;;6.30;12.40;;;;;;7390783;19;20022;-68
2023/02/20 04:48:06;;;;;;;8.80;3.92;;;6.20;12.40;;;;;;7392788;19;20024;-69
2023/02/20 04:50:36;;;;;;;6.40;4.03;;;6.20;13.10;;;;;;7390383;19;20039;-69
2023/02/20 04:53:06;;;;;;;7.60;4.47;;;6.10;13.30;;;;;;7393050;19;20082;-69
2023/02/20 04:55:38;;;;;;;13.25;4.60;;;6.10;13.30;;;;;;7392826;19;20490;-69
2023/02/20 04:58:08;;;;;;;8.05;3.78;;;6.00;13.80;;;;;;7392189;19;20035;-69
2023/02/20 05:00:38;;;;;;;10.43;4.32;;;6.00;13.60;;;;;;7390341;19;20018;-69
2023/02/20 05:03:08;;;;;;;8.73;4.20;;;6.00;14.70;;;;;;7392572;19;20018;-68
2023/02/20 05:05:38;;;;;;;9.10;4.25;;;6.00;14.90;;;;;;7390747;19;20018;-68
2023/02/20 05:08:09;;;;;;;10.10;4.05;;;5.90;15.00;;;;;;7392276;19;20088;-69
2023/02/20 05:10:42;;;;;;;8.48;4.05;;;5.90;15.40;;;;;;7389921;19;20014;-68
2023/02/20 05:13:11;;;;;;;7.72;4.60;;;5.90;16.00;;;;;;7392274;19;20013;-69
2023/02/20 05:15:41;;;;;;;13.52;5.28;;;6.00;15.90;;;;;;7392167;19;20474;-69
2023/02/20 05:18:11;;;;;;;7.45;4.50;;;6.00;15.30;;;;;;7392534;19;20018;-68
2023/02/20 05:23:23;;;;;;;8.35;4.53;;;6.00;15.70;;;;;;7391957;19;20478;-69
2023/02/20 05:25:55;;;;;;;8.02;3.78;;;5.90;15.60;;;;;;7389895;19;20031;-68
2023/02/20 05:28:25;;;;;;;10.45;4.30;;;5.90;15.60;;;;;;7391685;19;20025;-69
2023/02/20 05:30:55;;;;;;;9.20;4.28;;;5.90;15.10;;;;;;7389911;19;20025;-68
2023/02/20 05:33:25;;;;;;;10.82;4.97;;;5.80;15.30;;;;;;7391000;19;20031;-68
2023/02/20 05:35:54;;;;;;;10.30;4.70;;;5.80;15.80;;;;;;7391468;19;20090;-69
2023/02/20 05:38:24;;;;;;;10.77;5.07;;;5.80;16.00;;;;;;7357521;19;20010;-69
2023/02/20 05:40:57;;;;;;;7.97;4.63;;;5.80;16.10;;;;;;7365061;19;20018;-69
2023/02/20 05:43:27;;;;;;;11.70;4.90;;;5.70;15.40;;;;;;7364656;19;20367;-69
2023/02/20 05:45:56;;;;;;;8.13;4.38;;;5.70;15.60;;;;;;7362779;19;20018;-69
2023/02/20 05:48:26;;;;;;;8.57;4.68;;;5.70;15.90;;;;;;7387592;19;20529;-68
2023/02/20 05:50:56;;;;;;;8.95;5.15;;;5.70;16.10;;;;;;7363609;19;20629;-68
2023/02/20 05:53:28;;;;;;;8.00;5.25;;;5.60;16.10;;;;;;7362734;19;20030;-68
2023/02/20 05:56:01;;;;;;;9.60;4.95;;;5.70;16.30;;;;;;7363102;19;20494;-68
2023/02/20 05:58:31;;;;;;;11.18;5.28;;;5.70;16.00;;;;;;7362221;19;20490;-68
2023/02/20 06:01:00;;;;;;;13.40;5.35;;;5.70;15.70;;;;;;7361724;19;20014;-69
2023/02/20 06:03:30;;;;;;;11.88;5.43;;;5.70;15.80;;;;;;7367918;19;20813;-69
2023/02/20 06:06:00;;;;;;;10.57;5.03;;;5.70;15.90;;;;;;7382680;19;20034;-69
2023/02/20 06:08:30;;;;;;;8.15;4.88;;;5.70;15.40;;;;;;7361160;19;20018;-68
2023/02/20 06:11:02;;;;;;;9.07;5.50;;;5.60;15.20;;;;;;7362603;19;20038;-68
2023/02/20 06:13:32;;;;;;;8.98;5.05;;;5.60;15.80;;;;;;7362675;19;20514;-69
2023/02/20 06:16:01;;;;;;;9.82;4.78;;;5.50;15.60;;;;;;7362227;19;20011;-69
2023/02/20 06:18:31;;;;;;;13.00;5.07;;;5.50;15.60;;;;;;7361491;19;20029;-69
2023/02/20 06:21:01;;;;;;;10.68;5.80;;;5.50;16.00;;;;;;7383240;19;20015;-68
2023/02/20 06:23:31;;;;;;;9.75;5.50;;;5.50;16.50;;;;;;7360733;19;20542;-69
2023/02/20 06:26:03;;;;;;;12.45;5.47;;;5.50;16.50;;;;;;7361419;19;20007;-68
2023/02/20 06:28:33;;;;;;;12.27;6.07;;;5.50;16.60;;;;;;7362298;19;20014;-68
2023/02/20 06:31:03;;;;;;;16.42;6.20;;;5.50;16.90;;;;;;7361679;19;20011;-69
2023/02/20 06:33:33;;;;;;;12.63;5.93;;;5.50;16.50;;;;;;7361248;19;20029;-68
2023/02/20 06:36:02;;;;;;;11.80;5.72;;;5.50;16.80;;;;;;7382916;19;20376;-69
2023/02/20 06:38:32;;;;;;;9.90;6.18;;;5.50;16.90;;;;;;7361492;19;20025;-69
2023/02/20 06:41:05;;;;;;;10.80;5.40;;;5.50;17.10;;;;;;7393578;19;20018;-68
2023/02/20 06:43:35;;;;;;;7.47;5.10;;;5.50;17.00;;;;;;7388445;19;20548;-69
2023/02/20 06:46:05;;;;;;;12.13;5.85;;;5.50;17.00;;;;;;7387372;19;20014;-68
2023/02/20 06:48:34;;;;;;;12.00;6.03;;;5.50;17.30;;;;;;7387358;19;20372;-69
2023/02/20 06:51:04;;;;;;;9.60;5.43;;;5.60;17.70;;;;;;7388595;19;20031;-69
2023/02/20 06:53:37;;;;;;;13.18;6.25;;;5.60;17.50;;;;;;7388882;19;20018;-68
2023/02/20 06:56:12;;;;;;;12.10;5.80;;;5.60;17.30;;;;;;7388314;19;20478;-69
2023/02/20 06:58:42;;;;;;;12.35;5.32;;;5.70;17.20;;;;;;7388613;19;20018;-69
2023/02/20 07:01:12;;;;;;;11.52;5.78;;;5.70;16.80;;;;;;7393156;19;20034;-69
2023/02/20 07:03:43;;;;;;;14.63;5.45;;;5.80;16.50;;;;;;7388434;19;20040;-69
2023/02/20 07:06:13;;;;;;;12.05;5.72;;;5.80;16.30;;;;;;7387082;19;20038;-69
2023/02/20 07:08:43;;;;;;;12.07;5.93;;;5.90;15.70;;;;;;7387075;19;20010;-69
2023/02/20 07:11:17;;;;;;;12.52;6.07;;;6.00;15.10;;;;;;7387937;19;20049;-68
2023/02/20 07:13:47;;;;;;;12.20;6.30;;;6.10;14.40;;;;;;7388080;19;20081;-68
2023/02/20 07:16:17;;;;;;;11.02;5.55;;;6.20;13.30;;;;;;7386701;19;20015;-68
2023/02/20 07:18:47;;;;;;;12.32;5.55;;;6.30;13.10;;;;;;7386608;19;20451;-68
2023/02/20 07:21:17;;;;;;;11.40;5.65;;;6.30;12.60;;;;;;7387509;19;20022;-68
2023/02/20 07:23:47;;;;;;;11.45;5.63;;;6.40;12.10;;;;;;7387481;19;20064;-68
2023/02/20 07:26:25;;;;;;;11.10;6.25;;;6.40;11.90;;;;;;7385994;19;20025;-69
2023/02/20 07:28:57;;;;;;;16.10;6.00;;;6.40;11.50;;;;;;7386947;19;20086;-69
2023/02/20 07:31:27;;;;;;;17.08;6.50;;;6.50;11.30;;;;;;7387361;19;20082;-68
2023/02/20 07:33:57;;;;;;;8.90;5.13;;;6.70;10.20;;;;;;7387659;19;20025;-67
2023/02/20 07:36:27;;;;;;;11.27;5.32;;;6.80;9.20;;;;;;7387269;19;20110;-67
2023/02/20 07:38:58;;;;;;;9.68;5.43;;;6.80;8.30;;;;;;7386453;19;20534;-69
2023/02/20 07:41:33;;;;;;;11.57;5.65;;;6.90;8.10;;;;;;7387153;19;20006;-69
2023/02/20 07:44:03;;;;;;;14.25;5.72;;;7.00;7.20;;;;;;7386767;19;20019;-68
2023/02/20 07:46:33;;;;;;;15.73;4.95;;;7.10;6.60;;;;;;7385356;19;20085;-69
2023/02/20 07:49:04;;;;;;;9.32;4.90;;;7.20;6.10;;;;;;7383480;19;20018;-68
2023/02/20 07:51:34;;;;;;;11.93;5.20;;;7.20;5.00;;;;;;7385333;19;20077;-68
2023/02/20 07:54:05;;;;;;;12.02;4.80;;;7.30;5.10;;;;;;7385002;19;20497;-67
2023/02/20 07:56:37;;;;;;;8.75;4.85;;;7.40;3.70;;;;;;7394369;19;20377;-69
2023/02/20 07:59:08;;;;;;;10.43;4.55;;;7.50;3.00;;;;;;7392729;19;20010;-69
2023/02/20 08:01:39;;;;;;;13.90;4.88;;;7.50;1.80;;;;;;7393715;19;20541;-69
2023/02/20 08:04:09;;;;;;;12.82;4.55;;;7.70;1.20;;;;;;7394181;19;20057;-68
2023/02/20 08:06:39;;;;;;;10.18;4.90;;;7.80;1.00;;;;;;7392453;19;20018;-68
2023/02/20 08:09:09;;;;;;;8.68;3.92;;;7.90;1.00;;;;;;7392206;19;20429;-69
2023/02/20 08:11:41;;;;;;;6.55;4.35;;;8.00;1.00;;;;;;7393672;19;20042;-69
2023/02/20 08:14:11;;;;;;;11.05;4.40;;;8.00;1.00;;;;;;7393936;19;20038;-69
2023/02/20 08:16:41;;;;;;;12.00;4.40;;;8.10;1.00;;;;;;7393692;19;20533;-69
2023/02/20 08:19:11;;;;;;;11.13;6.00;;;8.20;1.00;;;;;;7392198;19;20014;-69
2023/02/20 08:21:41;;;;;;;5.30;3.80;;;8.20;1.00;;;;;;7393811;19;20100;-69
2023/02/20 08:24:11;;;;;;;7.30;4.13;;;8.30;1.00;;;;;;7393258;19;20018;-68
2023/02/20 08:26:48;;;;;;;10.73;4.20;;;8.30;1.00;;;;;;7392103;19;20018;-69
2023/02/20 08:29:18;;;;;;;7.78;3.88;;;8.40;1.00;;;;;;7392572;19;20014;-69
2023/02/20 08:31:48;;;;;;;9.13;3.58;;;8.50;1.00;;;;;;7392977;19;20078;-68
2023/02/20 08:34:18;;;;;;;7.80;3.78;;;8.60;1.00;;;;;;7393072;19;20039;-69
2023/02/20 08:36:48;;;;;;;6.47;3.65;;;8.60;1.00;;;;;;7392555;19;20102;-67
2023/02/20 08:39:18;;;;;;;7.88;3.75;;;8.70;1.00;;;;;;7390329;19;20030;-69
2023/02/20 08:41:50;;;;;;;10.20;3.85;;;8.80;1.00;;;;;;7392372;19;20412;-68
2023/02/20 08:44:20;;;;;;;7.68;3.50;;;8.90;1.00;;;;;;7392379;19;20019;-68
2023/02/20 08:46:50;;;;;;;9.25;3.45;;;8.90;1.00;;;;;;7391306;19;20074;-68
2023/02/20 08:49:21;;;;;;;9.80;3.88;;;9.00;1.00;;;;;;7390484;19;20019;-69
2023/02/20 08:51:57;;;;;;;8.45;3.58;;;9.20;1.00;;;;;;7392484;19;20038;-68
2023/02/20 08:54:26;;;;;;;7.68;3.38;;;9.20;1.00;;;;;;7392393;19;20013;-68
2023/02/20 08:56:59;;;;;;;10.18;4.00;;;9.30;1.00;;;;;;7392517;19;20031;-68
2023/02/20 08:59:33;;;;;;;9.55;3.72;;;9.30;1.00;;;;;;7390617;19;20019;-69
2023/02/20 09:02:03;;;;;;;7.80;3.50;;;9.40;1.00;;;;;;7392425;19;20614;-69
2023/02/20 09:04:33;;;;;;;8.25;3.55;;;9.50;1.00;;;;;;7392502;19;20014;-68
2023/02/20 09:07:03;;;;;;;7.75;3.20;;;9.70;1.00;;;;;;7390154;19;20497;-67
2023/02/20 09:09:33;;;;;;;9.90;3.60;;;9.90;1.00;;;;;;7390079;19;20026;-69
2023/02/20 09:12:06;;;;;;;6.50;3.25;;;10.00;1.00;;;;;;7391982;19;20018;-68
2023/02/20 09:14:36;;;;;;;5.72;2.80;;;10.00;1.00;;;;;;7392081;19;20025;-68
2023/02/20 09:17:06;;;;;;;5.18;2.90;;;10.20;1.00;;;;;;7391737;19;20478;-68
2023/02/20 09:19:36;;;;;;;7.78;4.20;;;10.20;1.00;;;;;;7389941;19;20015;-69
2023/02/20 09:22:06;;;;;;;7.72;2.95;;;10.40;1.00;;;;;;7390876;19;20542;-67
2023/02/20 09:24:37;;;;;;;6.93;2.70;;;10.70;1.00;;;;;;7393326;19;20545;-68
2023/02/20 09:27:09;;;;;;;7.05;3.00;;;10.90;1.00;;;;;;7388235;19;20018;-68
2023/02/20 09:29:41;;;;;;;6.97;2.63;;;11.10;1.00;;;;;;7392011;19;20459;-68
2023/02/20 09:32:11;;;;;;;10.13;2.65;;;11.40;1.00;;;;;;7390572;19;20087;-68
2023/02/20 09:34:43;;;;;;;6.10;2.78;;;11.40;1.00;;;;;;7390810;19;20510;-69
2023/02/20 09:37:13;;;;;;;10.85;2.92;;;11.10;1.00;;;;;;7389821;19;20017;-69
2023/02/20 09:39:43;;;;;;;4.00;2.45;;;11.20;1.00;;;;;;7387966;19;20482;-69
2023/02/20 09:42:28;;;;;;;7.00;2.50;;;11.30;1.00;;;;;;7389189;19;20499;-68
2023/02/20 09:45:04;;;;;;;;;;;11.20;1.00;;;;;;7388879;19;20400;-68
2023/02/20 09:47:45;;;;;;;3.83;2.20;;;10.90;1.00;;;;;;7388257;19;19926;-69
2023/02/20 09:50:18;;;;;;;5.75;2.80;;;11.10;1.00;;;;;;7387779;19;20021;-69
2023/02/20 09:52:57;;;;;;;8.15;2.72;;;10.90;1.00;;;;;;7389109;19;20018;-68
2023/02/20 09:55:39;;;;;;;5.63;2.50;;;11.10;1.00;;;;;;7388175;19;20018;-70
2023/02/20 09:58:21;;;;;;;6.72;3.13;;;10.90;1.00;;;;;;7387870;19;20324;-68
2023/02/20 10:00:52;;;;;;;7.05;2.80;;;11.20;1.00;;;;;;7386849;19;20492;-69
2023/02/20 10:03:29;;;;;;;6.25;2.88;;;11.20;1.00;;;;;;7388744;19;20021;-68
2023/02/20 10:05:59;;;;;;;11.45;3.97;;;11.40;1.00;;;;;;7388795;19;20014;-69
2023/02/20 10:08:29;;;;;;;7.60;2.60;;;11.10;1.00;;;;;;7385095;19;20018;-68
2023/02/20 10:11:04;;;;;;;6.50;2.97;;;11.00;1.00;;;;;;7388846;19;20078;-69
2023/02/20 10:13:50;;;;;;;8.10;2.40;;;11.20;1.00;;;;;;7388851;19;20018;-69
2023/02/20 10:16:34;;;;;;;7.88;2.67;;;11.50;1.00;;;;;;7386755;19;20026;-68
2023/02/20 10:19:15;;;;;;;4.50;2.20;;;11.40;1.00;;;;;;7384852;19;20014;-68
2023/02/20 10:21:54;;;;;;;7.97;2.50;;;11.40;1.00;;;;;;7388573;19;20500;-69
2023/02/20 10:24:34;;;;;;;11.60;3.47;;;11.50;1.00;;;;;;7388173;19;20014;-69
2023/02/20 10:27:20;;;;;;;6.60;2.33;;;11.40;1.00;;;;;;7388785;19;20088;-68
2023/02/20 10:29:54;;;;;;;5.28;2.70;;;11.50;1.00;;;;;;7389910;19;20315;-69
2023/02/20 10:32:31;;;;;;;9.27;3.35;;;11.60;1.00;;;;;;7389341;19;20018;-69
2023/02/20 10:35:07;;;;;;;8.10;3.15;;;11.70;1.00;;;;;;7388626;19;20082;-70
2023/02/20 10:37:41;;;;;;;8.23;2.83;;;11.90;1.00;;;;;;7389006;19;20110;-69
2023/02/20 10:40:23;;;;;;;4.70;2.42;;;11.70;1.00;;;;;;7386821;19;20457;-68
2023/02/20 10:43:00;;;;;;;8.77;3.00;;;11.90;1.00;;;;;;7388903;19;20017;-68
2023/02/20 10:45:44;;;;;;;6.80;2.88;;;11.80;1.00;;;;;;7388932;19;20500;-70
2023/02/20 10:48:16;;;;;;;4.40;2.30;;;11.80;1.00;;;;;;7387159;19;20501;-69
2023/02/20 10:50:51;;;;;;;8.90;2.40;;;11.80;1.00;;;;;;7387207;19;20086;-69
2023/02/20 10:53:30;;;;;;;7.32;2.85;;;11.90;1.00;;;;;;7388471;19;20019;-69
2023/02/20 10:56:07;;;;;;;5.65;2.47;;;12.10;1.00;;;;;;7388723;19;20018;-68
2023/02/20 10:58:42;;;;;;;5.38;2.22;;;12.10;1.00;;;;;;7387595;19;20014;-69
2023/02/20 11:01:20;;;;;;;8.90;2.65;;;12.00;1.00;;;;;;7388913;19;20042;-69
2023/02/20 11:03:56;;;;;;;4.53;2.28;;;12.00;1.00;;;;;;7388317;19;20078;-67
2023/02/20 11:06:31;;;;;;;6.28;2.65;;;12.20;1.00;;;;;;7387958;19;20090;-69
2023/02/20 11:09:01;;;;;;;8.43;2.60;;;12.20;1.00;;;;;;7385448;19;20021;-68
2023/02/20 11:11:34;;;;;;;4.32;2.22;;;12.20;1.00;;;;;;7388484;19;20049;-69
2023/02/20 11:14:13;;;;;;;6.50;2.08;;;12.20;1.00;;;;;;7388336;19;20093;-68
2023/02/20 11:16:49;;;;;;;8.45;2.30;;;12.20;1.00;;;;;;7388119;19;20015;-69
2023/02/20 11:19:26;;;;;;;8.23;2.50;;;12.30;1.00;;;;;;7386312;19;20019;-70
2023/02/20 11:21:56;;;;;;;4.55;2.10;;;12.50;1.00;;;;;;7387334;19;20038;-69
2023/02/20 11:24:32;;;;;;;6.22;2.25;;;12.40;1.00;;;;;;7387674;19;20018;-69
2023/02/20 11:27:07;;;;;;;6.43;2.35;;;12.60;1.00;;;;;;7386131;19;20047;-69
2023/02/20 11:29:41;;;;;;;6.90;2.22;;;12.20;1.00;;;;;;7388214;19;20412;-68
2023/02/20 11:32:39;;;;;;;4.82;2.17;;;12.10;1.00;;;;;;7390570;19;20014;-68
2023/02/20 11:35:31;;;;;;;6.13;2.10;;;12.30;1.00;;;;;;7388888;19;20014;-69
2023/02/20 11:38:34;;;;;;;6.57;2.15;;;12.40;1.00;;;;;;7390122;19;20034;-69
2023/02/20 11:41:21;;;;;;;4.63;1.80;;;12.70;1.00;;;;;;7390518;19;20019;-67
2023/02/20 11:44:21;;;;;;;4.65;1.90;;;12.80;1.00;;;;;;7393348;19;20014;-68
2023/02/20 11:47:12;;;;;;;4.40;1.80;;;12.80;1.00;;;;;;7394796;19;20022;-69
2023/02/20 11:49:45;;;;;;;6.82;2.00;;;12.90;1.00;;;;;;7391102;19;20021;-68
2023/02/20 11:52:19;;;;;;;3.05;1.60;;;13.10;1.00;;;;;;7393230;19;20385;-68
2023/02/20 11:54:50;;;;;;;;;;;13.00;1.00;;;;;;7394908;19;20018;-68
2023/02/20 11:57:27;;;;;;;3.20;1.45;;;13.10;1.00;;;;;;7393956;19;19910;-68
2023/02/20 12:00:13;;;;;;;4.35;1.33;;;13.20;1.00;;;;;;7391939;19;20034;-68
2023/02/20 12:02:51;;;;;;;4.72;1.63;;;13.30;1.00;;;;;;7394342;19;20031;-69
2023/02/20 12:05:39;;;;;;;6.10;1.77;;;13.30;1.00;;;;;;7393835;19;20035;-68
2023/02/20 12:08:31;;;;;;;6.18;1.45;;;13.30;1.00;;;;;;7392657;19;20011;-69
2023/02/20 12:11:05;;;;;;;5.80;1.60;;;13.10;1.00;;;;;;7394176;19;20014;-69
2023/02/20 12:13:39;;;;;;;8.20;1.50;;;13.10;1.00;;;;;;7391960;19;20015;-68
2023/02/20 12:16:31;;;;;;;3.70;1.40;;;13.20;1.00;;;;;;7393921;19;20019;-68
2023/02/20 12:19:10;;;;;;;6.03;1.70;;;13.40;1.00;;;;;;7390804;19;20025;-69
2023/02/20 12:21:53;;;;;;;6.55;2.00;;;13.30;1.00;;;;;;7393987;19;20038;-69
2023/02/20 12:24:39;;;;;;;10.80;2.42;;;13.20;1.00;;;;;;7392904;19;20031;-67
2023/02/20 12:27:28;;;;;;;4.50;1.73;;;13.40;1.00;;;;;;7393264;19;20010;-68
2023/02/20 12:30:09;;;;;;;5.30;1.98;;;13.30;1.00;;;;;;7393753;19;20371;-68
2023/02/20 12:32:52;;;;;;;3.45;1.85;;;13.40;1.00;;;;;;7393353;19;20125;-69
2023/02/20 12:35:31;;;;;;;7.00;1.95;;;13.20;1.00;;;;;;7393535;19;20493;-68
2023/02/20 12:38:26;;;;;;;4.93;1.40;;;13.50;1.00;;;;;;7392728;19;20131;-68
2023/02/20 12:41:15;;;;;;;7.97;1.50;;;13.60;1.00;;;;;;7389823;19;20082;-67
2023/02/20 12:43:52;;;;;;;5.82;1.33;;;13.50;1.00;;;;;;7393122;19;20537;-68
2023/02/20 12:46:40;;;;;;;4.18;1.45;;;13.60;1.00;;;;;;7392698;19;20015;-68
2023/02/20 12:49:38;;;;;;;6.40;2.20;;;13.70;1.00;;;;;;7390073;19;20019;-68
2023/02/20 12:52:27;;;;;;;5.32;1.67;;;13.90;1.00;;;;;;7391884;19;20010;-69
2023/02/20 12:55:07;;;;;;;2.75;1.40;;;13.70;1.00;;;;;;7392393;19;20101;-68
2023/02/20 12:57:44;;;;;;;6.60;1.55;;;13.80;1.00;;;;;;7392596;19;20486;-68
2023/02/20 13:00:32;;;;;;;3.83;1.38;;;14.00;1.00;;;;;;7390169;19;20042;-68
2023/02/20 13:03:10;;;;;;;5.15;2.08;;;14.00;1.00;;;;;;7391941;19;20014;-68
2023/02/20 13:05:44;;;;;;;4.97;1.25;;;13.90;1.00;;;;;;7389860;19;20357;-67
2023/02/20 13:08:17;;;;;;;2.28;1.00;;;13.90;1.00;;;;;;7392007;19;20045;-68
2023/02/20 13:10:57;;;;;;;3.47;1.02;;;14.00;1.00;;;;;;7390109;19;20026;-69
2023/02/20 13:13:33;;;;;;;4.43;1.48;;;14.00;1.00;;;;;;7391659;19;20011;-69
2023/02/20 13:16:08;;;;;;;7.57;1.60;;;13.90;1.00;;;;;;7391026;19;20018;-68
2023/02/20 13:18:45;;;;;;;7.10;1.50;;;13.80;1.00;;;;;;7391630;19;20030;-68
2023/02/20 13:21:17;;;;;;;9.45;1.48;;;14.10;1.00;;;;;;7391518;19;20493;-69
2023/02/20 13:23:49;;;;;;;6.47;1.35;;;14.10;1.00;;;;;;7390940;19;20541;-69
2023/02/20 13:26:51;;;;;;;4.07;1.30;;;14.20;1.00;;;;;;7354498;19;20015;-67
2023/02/20 13:29:25;;;;;;;2.53;1.13;;;14.10;1.00;;;;;;7386695;19;20018;-68
2023/02/20 13:31:58;;;;;;;6.07;1.30;;;14.00;1.00;;;;;;7363721;19;20010;-68
2023/02/20 13:34:36;;;;;;;3.13;1.02;;;14.20;1.00;;;;;;7384684;19;20010;-68
2023/02/20 13:37:27;;;;;;;3.17;1.05;;;14.30;1.00;;;;;;7362915;19;20044;-68
2023/02/20 13:39:56;;;;;;;3.75;1.00;;;14.20;1.00;;;;;;7360596;19;20025;-68
2023/02/20 13:42:38;;;;;;;4.05;1.40;;;14.10;1.00;;;;;;7362917;19;20015;-68
2023/02/20 13:45:40;;;;;;;4.60;1.20;;;14.20;1.00;;;;;;7362707;19;20029;-69
2023/02/20 13:48:20;;;;;;;2.67;0.88;;;14.30;1.00;;;;;;7362017;19;20075;-68
2023/02/20 13:50:50;;;;;;;2.78;1.10;;;14.00;1.00;;;;;;7361760;19;20014;-68
2023/02/20 13:53:20;;;;;;;2.92;1.00;;;14.00;1.00;;;;;;7360086;19;20491;-69